WetterOnline ( https://www.wetteronline.de )

Wetter aktuell Bamberg

Aktuelles Wetter: Bamberg (243m)

6-stündlich | Neueste Meldungen
Ortszeit Temperatur Wetter
Fr, 20.09. 14:00 16.2° C wolkig
Fr, 20.09. 8:00 0.6° C leicht bewölkt
Fr, 20.09. 2:00 0.4° C wolkig
Do, 19.09. 20:00 7.6° C fast wolkenlos
Do, 19.09. 14:00 14.5° C leicht bewölkt
Do, 19.09. 8:00 0.8° C wolkenlos
Do, 19.09. 2:00 2.0° C wolkig
Mi, 18.09. 20:00 13.6° C leicht bewölkt
Ortszeit Temperatur Wetter
Fr, 20.09. 16:10 18.0° C wolkenlos
Fr, 20.09. 16:00 17.6° C wolkenlos
Fr, 20.09. 15:50 17.6° C wolkenlos
Fr, 20.09. 15:40 18.3° C fast wolkenlos
Fr, 20.09. 15:30 17.6° C wolkig
Fr, 20.09. 15:20 17.6° C wolkig
Fr, 20.09. 15:00 17.5° C leicht bewölkt
Fr, 20.09. 14:30 17.1° C wolkig
Fr, 20.09. 14:00 16.2° C wolkig
Fr, 20.09. 13:30 16.2° C leicht bewölkt
Fr, 20.09. 13:00 15.7° C leicht bewölkt
Ortszeit Relative Feuchte Sichtweite
Fr, 20.09. 14:00 37% 55 km
Fr, 20.09. 8:00 88% 50 km
Fr, 20.09. 2:00 90% 45 km
Do, 19.09. 20:00 68% 50 km
Do, 19.09. 14:00 39% 40 km
Do, 19.09. 8:00 86% 35 km
Do, 19.09. 2:00 87% 45 km
Mi, 18.09. 20:00 41% 50 km
Ortszeit Relative Feuchte Sichtweite
Fr, 20.09. 16:10 33% -
Fr, 20.09. 16:00 36% 35 km
Fr, 20.09. 15:50 36% -
Fr, 20.09. 15:40 34% -
Fr, 20.09. 15:30 35% 50 km
Fr, 20.09. 15:20 35% -
Fr, 20.09. 15:00 36% 55 km
Fr, 20.09. 14:30 36% 55 km
Fr, 20.09. 14:00 37% 55 km
Fr, 20.09. 13:30 37% 45 km
Fr, 20.09. 13:00 39% 35 km
Ortszeit Niederschlagsmenge Niederschlagsart
Fr, 20.09. 14:00 0.0 l/m2 in 6 Std. -
Fr, 20.09. 8:00 0.0 l/m2 in 12 Std. -
Fr, 20.09. 2:00 0.0 l/m2 in 6 Std. -
Do, 19.09. 20:00 0.0 l/m2 in 12 Std. -
Do, 19.09. 14:00 0.0 l/m2 in 6 Std. -
Do, 19.09. 8:00 0.0 l/m2 in 12 Std. -
Do, 19.09. 2:00 0.0 l/m2 in 6 Std. -
Mi, 18.09. 20:00 0.0 l/m2 in 12 Std. -
Ortszeit Niederschlagsmenge Niederschlagsart
Fr, 20.09. 16:10 keine Meldung -
Fr, 20.09. 16:00 0.0 l/m2 in 1 Std. -
Fr, 20.09. 15:50 keine Meldung -
Fr, 20.09. 15:40 keine Meldung -
Fr, 20.09. 15:30 0.0 l/m2 in 1 Std. -
Fr, 20.09. 15:20 keine Meldung -
Fr, 20.09. 15:00 0.0 l/m2 in 1 Std. -
Fr, 20.09. 14:30 0.0 l/m2 in 1 Std. -
Fr, 20.09. 14:00 0.0 l/m2 in 1 Std. -
Fr, 20.09. 13:30 0.0 l/m2 in 1 Std. -
Fr, 20.09. 13:00 0.0 l/m2 in 1 Std. -
Ortszeit Stärke Spitze Richtung
km/h Bft. km/h Grad Sektor
Fr, 20.09. 14:00 6 1 19 270° W
Fr, 20.09. 8:00 2 1 6 100° O
Fr, 20.09. 2:00 4 1 7 90° O
Do, 19.09. 20:00 4 1 32 80° O
Do, 19.09. 14:00 4 1 32 110° O
Do, 19.09. 8:00 4 1 4 110° O
Do, 19.09. 2:00 4 1 14 120° SO
Mi, 18.09. 20:00 7 2 29 330° NW
Ortszeit Stärke Spitze Richtung
km/h Bft. km/h Grad Sektor
Fr, 20.09. 16:10 7 2 - 20° N
Fr, 20.09. 16:00 11 2 22 10° N
Fr, 20.09. 15:50 11 2 - 10° N
Fr, 20.09. 15:40 7 2 - 300° NW
Fr, 20.09. 15:30 9 2 22 350° N
Fr, 20.09. 15:20 9 2 - 350° N
Fr, 20.09. 15:00 14 3 22 30° NO
Fr, 20.09. 14:30 9 2 20 280° W
Fr, 20.09. 14:00 6 1 19 270° W
Fr, 20.09. 13:30 9 2 19 330° NW
Fr, 20.09. 13:00 7 2 18 340° N
Ortszeit Untergrenze Bedeckung Gattung
total tief tief mittel hoch
Fr, 20.09. 14:00 6900 m 8/8 8/8 - - -
Fr, 20.09. 8:00 10500 m 3/8 0/8 - - -
Fr, 20.09. 2:00 10500 m 8/8 0/8 - - -
Do, 19.09. 20:00 10500 m 1/8 0/8 - - -
Do, 19.09. 14:00 1500 m 4/8 3/8 - - -
Do, 19.09. 8:00 - 0/8 0/8 - - -
Do, 19.09. 2:00 7200 m 8/8 0/8 - - -
Mi, 18.09. 20:00 10500 m 4/8 0/8 - - -
Ortszeit Bedeckungsgrad in Achtel und Wolkenuntergrenze
Fr, 20.09. 16:10 keine Wolken
Fr, 20.09. 16:00 keine Wolken
Fr, 20.09. 15:50 keine Wolken
Fr, 20.09. 15:40 1(9000m) 2(9000m)
Fr, 20.09. 15:30 3(7500m) 5(9000m) 7(10500m)
Fr, 20.09. 15:20 3(7500m) 5(9000m) 7(10500m)
Fr, 20.09. 15:00 7(7500m) 7(9000m) 7(10500m)
Fr, 20.09. 14:30 2(6900m) 7(7500m) 7(8100m)
Fr, 20.09. 14:00 8(6900m) 8(7800m)
Fr, 20.09. 13:30 3(10500m) 5(9000m)
Fr, 20.09. 13:00 6(7500m) 7(9000m) 8(10500m)
Ortszeit Luftdruck NN (hPa) Tendenz (hPa in 3 Std.)
Fr, 20.09. 14:00 1028 - 1,4
Fr, 20.09. 8:00 1031 + 0,1
Fr, 20.09. 2:00 1032 0,0
Do, 19.09. 20:00 1030 + 0,8
Do, 19.09. 14:00 1029 - 0,6
Do, 19.09. 8:00 1030 + 1,3
Do, 19.09. 2:00 1028 + 0,6
Mi, 18.09. 20:00 1025 + 0,5
Ortszeit Luftdruck NN (hPa) Tendenz (hPa in 3 Std.)
Fr, 20.09. 16:10 1027 keine Meldung
Fr, 20.09. 16:00 1027 - 1,6
Fr, 20.09. 15:50 1027 keine Meldung
Fr, 20.09. 15:40 1027 keine Meldung
Fr, 20.09. 15:30 1028 - 1,3
Fr, 20.09. 15:20 1028 keine Meldung
Fr, 20.09. 15:00 1028 - 1,4
Fr, 20.09. 14:30 1028 - 1,4
Fr, 20.09. 14:00 1028 - 1,4
Fr, 20.09. 13:30 1029 - 1,5
Fr, 20.09. 13:00 1029 - 1,3
Ortszeit Schneehöhe (cm)
Fr, 20.09. 14:00 -
Fr, 20.09. 8:00 -
Fr, 20.09. 2:00 -
Do, 19.09. 20:00 -
Do, 19.09. 14:00 -
Do, 19.09. 8:00 -
Do, 19.09. 2:00 -
Mi, 18.09. 20:00 -
Ortszeit Schneehöhe (cm)
Fr, 20.09. 16:10 -
Fr, 20.09. 16:00 -
Fr, 20.09. 15:50 -
Fr, 20.09. 15:40 -
Fr, 20.09. 15:30 -
Fr, 20.09. 15:20 -
Fr, 20.09. 15:00 -
Fr, 20.09. 14:30 -
Fr, 20.09. 14:00 -
Fr, 20.09. 13:30 -
Fr, 20.09. 13:00 -
Link zu dieser Seite / Seite empfehlen

Das Wetter in ...